createdAt,value
2022-09-30T00:00:46.221Z,99.90
2022-09-30T00:03:12.928Z,99.90
2022-09-30T00:05:39.483Z,99.90
2022-09-30T00:08:06.233Z,99.90
2022-09-30T00:10:32.863Z,1.00
2022-09-30T00:12:59.416Z,1.00
2022-09-30T00:15:26.032Z,1.00
2022-09-30T00:17:52.565Z,1.00
2022-09-30T00:20:19.199Z,99.90
2022-09-30T00:22:45.719Z,99.90
2022-09-30T00:25:12.357Z,1.00
2022-09-30T00:27:38.875Z,1.00
2022-09-30T00:30:05.609Z,1.40
2022-09-30T00:32:32.141Z,1.00
2022-09-30T00:34:58.688Z,1.00
2022-09-30T00:37:25.217Z,99.90
2022-09-30T00:39:51.798Z,99.90
2022-09-30T00:42:19.529Z,99.90
2022-09-30T00:44:52.107Z,99.90
2022-09-30T00:47:37.524Z,99.90
2022-09-30T00:50:10.207Z,99.90
2022-09-30T00:52:36.743Z,99.90
2022-09-30T00:55:04.608Z,99.90
2022-09-30T00:57:31.137Z,99.90
2022-09-30T00:59:57.708Z,1.00
2022-09-30T01:02:24.293Z,1.00
2022-09-30T01:04:50.946Z,1.00
2022-09-30T01:07:17.552Z,1.00
2022-09-30T01:09:44.239Z,1.00
2022-09-30T01:12:12.147Z,1.00
2022-09-30T01:14:38.692Z,1.40
2022-09-30T01:17:11.208Z,1.00
2022-09-30T01:19:58.137Z,1.00
2022-09-30T01:22:33.147Z,1.00
2022-09-30T01:25:22.739Z,99.90
2022-09-30T01:28:07.893Z,99.90
2022-09-30T01:30:53.215Z,1.00
2022-09-30T01:33:25.801Z,1.00
2022-09-30T01:36:01.503Z,1.00
2022-09-30T01:38:29.237Z,1.00
2022-09-30T01:41:09.193Z,1.00
2022-09-30T01:43:38.770Z,1.00
2022-09-30T01:46:19.567Z,1.00
2022-09-30T01:49:04.925Z,1.00
2022-09-30T01:51:35.555Z,1.00
2022-09-30T01:54:03.507Z,1.00
2022-09-30T01:56:32.940Z,1.00
2022-09-30T01:58:59.455Z,1.00
2022-09-30T02:01:31.692Z,1.00
2022-09-30T02:03:59.036Z,1.00
2022-09-30T02:06:26.740Z,1.00
2022-09-30T02:08:56.429Z,1.00
2022-09-30T02:11:30.041Z,1.00
2022-09-30T02:14:16.861Z,1.00
2022-09-30T02:16:45.658Z,1.00
2022-09-30T02:19:24.381Z,1.00
2022-09-30T02:21:52.903Z,1.00
2022-09-30T02:24:20.075Z,1.00
2022-09-30T02:26:46.626Z,1.00
2022-09-30T02:29:15.549Z,1.00
2022-09-30T02:31:42.778Z,1.00
2022-09-30T02:34:11.405Z,1.00
2022-09-30T02:36:38.766Z,1.00
2022-09-30T02:39:10.136Z,1.00
2022-09-30T02:41:42.337Z,1.00
2022-09-30T02:44:08.885Z,1.00
2022-09-30T02:46:47.112Z,1.00
2022-09-30T02:49:19.888Z,1.00
2022-09-30T02:51:58.583Z,1.00
2022-09-30T02:54:45.398Z,1.00
2022-09-30T02:57:18.696Z,1.00
2022-09-30T02:59:46.447Z,1.00
2022-09-30T03:02:13.066Z,31.10
2022-09-30T03:04:41.362Z,23.20
2022-09-30T03:07:07.965Z,1.00
2022-09-30T03:09:34.912Z,1.00
2022-09-30T03:12:05.834Z,1.00
2022-09-30T03:14:36.893Z,1.00
2022-09-30T03:17:22.309Z,1.00
2022-09-30T03:19:51.880Z,1.00
2022-09-30T03:22:27.437Z,1.00
2022-09-30T03:24:54.699Z,1.00
2022-09-30T03:27:32.530Z,1.00
2022-09-30T03:30:05.172Z,1.00
2022-09-30T03:32:50.540Z,1.00
2022-09-30T03:35:17.052Z,1.00
2022-09-30T03:37:46.639Z,1.00
2022-09-30T03:40:19.592Z,1.00
2022-09-30T03:43:09.584Z,1.00
2022-09-30T03:45:40.567Z,1.00
2022-09-30T03:48:07.885Z,1.00
2022-09-30T03:50:34.764Z,1.00
2022-09-30T03:53:01.313Z,1.00
2022-09-30T03:55:27.942Z,1.00
2022-09-30T03:57:54.476Z,1.00
2022-09-30T04:00:21.153Z,1.00
2022-09-30T04:02:48.160Z,1.00
2022-09-30T04:05:14.722Z,1.00
2022-09-30T04:07:41.252Z,1.00
2022-09-30T04:10:08.049Z,1.00
2022-09-30T04:12:34.585Z,1.00
2022-09-30T04:15:01.137Z,1.00
2022-09-30T04:17:27.671Z,1.00
2022-09-30T04:19:54.217Z,1.00
2022-09-30T04:22:25.547Z,1.00
2022-09-30T04:24:52.759Z,1.00
2022-09-30T04:27:19.291Z,1.00
2022-09-30T04:29:45.837Z,1.00
2022-09-30T04:32:12.377Z,1.00
2022-09-30T04:34:38.947Z,1.00
2022-09-30T04:37:10.091Z,1.00
2022-09-30T04:39:37.446Z,1.00
2022-09-30T04:42:04.193Z,1.00
2022-09-30T04:44:30.761Z,1.00
2022-09-30T04:46:57.296Z,1.00
2022-09-30T04:49:24.396Z,1.00
2022-09-30T04:51:51.332Z,1.00
2022-09-30T04:54:18.637Z,1.00
2022-09-30T04:56:45.157Z,1.00
2022-09-30T04:59:11.720Z,1.00
2022-09-30T05:01:39.391Z,1.00
2022-09-30T05:04:06.080Z,1.00
2022-09-30T05:06:32.637Z,1.00
2022-09-30T05:08:59.246Z,1.00
2022-09-30T05:11:26.271Z,99.90
2022-09-30T05:13:52.794Z,99.90
2022-09-30T05:16:19.473Z,99.90
2022-09-30T05:18:46.120Z,99.90
2022-09-30T05:21:13.398Z,99.90
2022-09-30T05:23:39.927Z,99.90
2022-09-30T05:26:11.087Z,1.00
2022-09-30T05:28:38.701Z,1.00
2022-09-30T05:31:06.263Z,1.00
2022-09-30T05:33:33.091Z,1.00
2022-09-30T05:36:00.778Z,1.00
2022-09-30T05:38:27.418Z,1.00
2022-09-30T05:40:54.462Z,1.00
2022-09-30T05:43:21.035Z,1.00
2022-09-30T05:45:54.304Z,1.00
2022-09-30T05:48:20.983Z,99.90
2022-09-30T05:50:50.470Z,99.90
2022-09-30T05:53:18.250Z,99.90
2022-09-30T05:55:45.831Z,1.00
2022-09-30T05:58:12.356Z,1.00
2022-09-30T06:00:40.566Z,99.90
2022-09-30T06:03:07.162Z,99.90
2022-09-30T06:05:33.750Z,99.90
2022-09-30T06:08:00.822Z,99.90
2022-09-30T06:10:27.402Z,94.10
2022-09-30T06:12:53.950Z,45.70
2022-09-30T06:15:20.497Z,31.50
2022-09-30T06:17:51.881Z,16.80
2022-09-30T06:20:18.433Z,1.00
2022-09-30T06:22:44.960Z,1.00
2022-09-30T06:25:11.508Z,1.00
2022-09-30T06:27:38.231Z,1.00
2022-09-30T06:30:05.755Z,1.00
2022-09-30T06:32:32.446Z,1.00
2022-09-30T06:34:58.993Z,1.00
2022-09-30T06:37:25.530Z,1.00
2022-09-30T06:39:52.084Z,1.00
2022-09-30T06:42:18.763Z,1.00
2022-09-30T06:44:52.834Z,1.00
2022-09-30T06:47:25.057Z,1.00
2022-09-30T06:49:52.983Z,1.00
2022-09-30T06:52:20.056Z,1.00
2022-09-30T06:54:47.069Z,1.00
2022-09-30T06:57:13.701Z,1.00
2022-09-30T06:59:40.675Z,99.90
2022-09-30T07:02:08.900Z,99.90
2022-09-30T07:04:35.745Z,99.90
2022-09-30T07:07:02.907Z,99.90
2022-09-30T07:09:29.526Z,99.90
2022-09-30T07:11:56.095Z,99.90
2022-09-30T07:14:23.981Z,99.90
2022-09-30T07:16:52.971Z,99.90
2022-09-30T07:19:22.835Z,1.00
2022-09-30T07:21:50.031Z,1.00
2022-09-30T07:24:17.101Z,1.00
2022-09-30T07:26:45.333Z,1.00
2022-09-30T07:29:13.234Z,1.00
2022-09-30T07:31:40.024Z,1.00
2022-09-30T07:34:07.476Z,1.00
2022-09-30T07:36:37.668Z,99.90
2022-09-30T07:39:08.225Z,99.90
2022-09-30T07:41:35.823Z,99.90
2022-09-30T07:44:02.886Z,99.90
2022-09-30T07:46:30.393Z,99.90
2022-09-30T07:48:57.720Z,99.90
2022-09-30T07:51:25.469Z,99.90
2022-09-30T07:53:53.383Z,99.90
2022-09-30T07:56:20.139Z,79.50
2022-09-30T07:58:46.729Z,1.00
2022-09-30T08:01:13.331Z,1.00
2022-09-30T08:03:40.463Z,1.00
2022-09-30T08:06:16.576Z,1.00
2022-09-30T08:08:44.127Z,1.00
2022-09-30T08:11:10.986Z,1.00
2022-09-30T08:13:37.799Z,1.00
2022-09-30T08:16:04.480Z,99.90
2022-09-30T08:18:31.016Z,99.90
2022-09-30T08:20:57.619Z,1.00
2022-09-30T08:23:24.164Z,1.00
2022-09-30T08:25:50.707Z,99.90
2022-09-30T08:28:18.291Z,1.00
2022-09-30T08:30:44.845Z,1.00
2022-09-30T08:33:11.393Z,99.90
2022-09-30T08:35:37.949Z,99.90
2022-09-30T08:38:04.480Z,99.90
2022-09-30T08:40:32.400Z,99.90
2022-09-30T08:42:58.925Z,99.90
2022-09-30T08:45:30.251Z,99.90
2022-09-30T08:47:56.812Z,99.90
2022-09-30T08:50:40.779Z,1.00
2022-09-30T08:53:11.592Z,12.10
2022-09-30T08:55:42.173Z,19.10
2022-09-30T08:58:14.166Z,6.10
2022-09-30T09:00:40.860Z,1.00
2022-09-30T09:03:09.522Z,1.00
2022-09-30T09:05:42.209Z,1.00
2022-09-30T09:08:14.713Z,1.00
2022-09-30T09:10:45.164Z,1.00
2022-09-30T09:13:18.109Z,1.00
2022-09-30T09:15:44.642Z,1.00
2022-09-30T09:18:29.408Z,72.00
2022-09-30T09:20:55.995Z,1.00
2022-09-30T09:23:22.541Z,1.00
2022-09-30T09:25:52.925Z,1.00
2022-09-30T09:28:23.734Z,1.00
2022-09-30T09:30:52.723Z,1.00
2022-09-30T09:33:21.224Z,1.00
2022-09-30T09:35:54.602Z,1.00
2022-09-30T09:38:30.514Z,1.00
2022-09-30T09:41:12.460Z,1.00
2022-09-30T09:43:53.476Z,1.00
2022-09-30T09:46:20.132Z,1.00
2022-09-30T09:48:46.848Z,1.00
2022-09-30T09:51:17.038Z,1.00
2022-09-30T09:53:50.373Z,1.00
2022-09-30T09:56:20.630Z,1.00
2022-09-30T09:59:05.826Z,1.00
2022-09-30T10:01:33.087Z,1.00
2022-09-30T10:04:24.620Z,1.00
2022-09-30T10:07:01.183Z,1.00
2022-09-30T10:09:28.984Z,1.00
2022-09-30T10:12:07.369Z,1.00
2022-09-30T10:14:34.119Z,1.00
2022-09-30T10:17:01.186Z,1.00
2022-09-30T10:19:28.318Z,1.00
2022-09-30T10:22:11.751Z,1.00
2022-09-30T10:24:38.488Z,1.00
2022-09-30T10:27:05.812Z,1.00
2022-09-30T10:29:35.753Z,99.90
2022-09-30T10:32:02.902Z,1.00
2022-09-30T10:34:30.313Z,1.40
2022-09-30T10:36:56.939Z,99.90
2022-09-30T10:39:34.500Z,99.90
2022-09-30T10:42:01.613Z,99.90
2022-09-30T10:44:28.227Z,99.90
2022-09-30T10:46:58.428Z,99.90
2022-09-30T10:49:27.986Z,99.90
2022-09-30T10:51:55.365Z,99.90
2022-09-30T10:54:48.286Z,99.90
2022-09-30T10:57:15.817Z,99.90
2022-09-30T10:59:42.360Z,99.90
2022-09-30T11:02:11.992Z,99.90
2022-09-30T11:04:39.641Z,99.90
2022-09-30T11:07:23.188Z,99.90
2022-09-30T11:09:55.120Z,99.90
2022-09-30T11:12:27.441Z,99.90
2022-09-30T11:14:57.060Z,99.90
2022-09-30T11:17:34.125Z,99.90
2022-09-30T11:20:30.189Z,99.90
2022-09-30T11:22:59.085Z,99.90
2022-09-30T11:25:35.114Z,99.90
2022-09-30T11:28:09.522Z,99.90
2022-09-30T11:30:36.165Z,99.90
2022-09-30T11:33:14.590Z,99.90
2022-09-30T11:35:46.517Z,99.90
2022-09-30T11:38:13.031Z,99.90
2022-09-30T11:40:43.119Z,99.90
2022-09-30T11:43:15.796Z,99.90
2022-09-30T11:45:56.709Z,99.90
2022-09-30T11:48:42.120Z,99.90
2022-09-30T11:51:10.526Z,99.90
2022-09-30T11:53:40.099Z,99.90
2022-09-30T11:56:07.031Z,99.90
2022-09-30T11:58:41.575Z,99.90
2022-09-30T12:01:16.682Z,99.90
2022-09-30T12:03:44.141Z,99.90
2022-09-30T12:06:34.051Z,99.90
2022-09-30T12:09:09.284Z,99.90
2022-09-30T12:11:37.675Z,99.90
2022-09-30T12:14:05.750Z,99.90
2022-09-30T12:16:32.970Z,99.90
2022-09-30T12:19:02.681Z,99.90
2022-09-30T12:21:29.444Z,99.90
2022-09-30T12:24:00.171Z,99.90
2022-09-30T12:26:27.119Z,99.90
2022-09-30T12:29:13.136Z,99.90
2022-09-30T12:31:45.634Z,99.90
2022-09-30T12:34:38.711Z,99.90
2022-09-30T12:37:05.261Z,99.90
2022-09-30T12:39:38.816Z,99.90
2022-09-30T12:42:07.630Z,99.90
2022-09-30T12:44:41.057Z,99.90
2022-09-30T12:47:07.648Z,99.90
2022-09-30T12:49:34.208Z,99.90
2022-09-30T12:52:03.505Z,99.90
2022-09-30T12:54:33.535Z,99.90
2022-09-30T12:57:01.133Z,99.90
2022-09-30T12:59:29.845Z,99.90
2022-09-30T13:01:57.824Z,99.90
2022-09-30T13:04:45.867Z,99.90
2022-09-30T13:07:19.043Z,99.90
2022-09-30T13:10:01.659Z,99.90
2022-09-30T13:12:29.448Z,99.90
2022-09-30T13:15:15.449Z,99.90
2022-09-30T13:17:42.989Z,99.90
2022-09-30T13:20:28.104Z,99.90
2022-09-30T13:22:55.220Z,99.90
2022-09-30T13:25:21.819Z,99.90
2022-09-30T13:28:10.685Z,99.90
2022-09-30T13:30:37.430Z,99.90
2022-09-30T13:33:03.919Z,99.90
2022-09-30T13:35:49.813Z,99.90
2022-09-30T13:38:17.383Z,99.90
2022-09-30T13:41:03.928Z,99.90
2022-09-30T13:43:50.883Z,99.90
2022-09-30T13:46:29.736Z,99.90
2022-09-30T13:49:19.660Z,99.90
2022-09-30T13:51:46.209Z,99.90
2022-09-30T13:54:28.071Z,99.90
2022-09-30T13:56:54.643Z,99.90
2022-09-30T13:59:39.887Z,99.90
2022-09-30T14:02:18.026Z,99.90
2022-09-30T14:05:06.982Z,99.90
2022-09-30T14:07:38.042Z,99.90
2022-09-30T14:10:16.804Z,99.90
2022-09-30T14:12:52.687Z,99.90
2022-09-30T14:15:25.478Z,99.90
2022-09-30T14:17:52.503Z,99.90
2022-09-30T14:20:22.888Z,99.90
2022-09-30T14:22:49.434Z,99.90
2022-09-30T14:25:16.658Z,99.90
2022-09-30T14:27:45.566Z,99.90
2022-09-30T14:30:22.221Z,99.90
2022-09-30T14:33:18.323Z,99.90
2022-09-30T14:35:44.885Z,99.90
2022-09-30T14:38:16.756Z,99.90
2022-09-30T14:40:48.635Z,99.90
2022-09-30T14:43:15.881Z,99.90
2022-09-30T14:45:43.181Z,99.90
2022-09-30T14:48:17.196Z,99.90
2022-09-30T14:50:46.821Z,99.90
2022-09-30T14:53:32.621Z,99.90
2022-09-30T14:55:59.425Z,99.90
2022-09-30T14:58:30.520Z,99.90
2022-09-30T15:01:03.042Z,99.90
2022-09-30T15:03:29.721Z,99.90
2022-09-30T15:05:57.886Z,99.90
2022-09-30T15:08:24.423Z,99.90
2022-09-30T15:10:54.548Z,99.90
2022-09-30T15:13:22.801Z,99.90
2022-09-30T15:15:49.415Z,99.90
2022-09-30T15:18:31.179Z,99.90
2022-09-30T15:20:59.155Z,99.90
2022-09-30T15:23:29.590Z,99.90
2022-09-30T15:25:57.307Z,99.90
2022-09-30T15:28:23.956Z,99.90
2022-09-30T15:30:53.592Z,99.90
2022-09-30T15:33:22.188Z,99.90
2022-09-30T15:35:48.734Z,99.90
2022-09-30T15:38:16.912Z,99.90
2022-09-30T15:40:53.222Z,99.90
2022-09-30T15:43:31.224Z,99.90
2022-09-30T15:45:59.543Z,99.90
2022-09-30T15:48:26.145Z,99.90
2022-09-30T15:50:56.665Z,99.90
2022-09-30T15:53:25.677Z,99.90
2022-09-30T15:55:56.102Z,99.90
2022-09-30T15:58:33.579Z,99.90
2022-09-30T16:01:17.493Z,99.90
2022-09-30T16:03:54.717Z,99.90
2022-09-30T16:06:25.358Z,99.90
2022-09-30T16:08:53.917Z,99.90
2022-09-30T16:11:25.144Z,99.90
2022-09-30T16:13:51.671Z,99.90
2022-09-30T16:16:21.324Z,99.90
2022-09-30T16:18:48.153Z,99.90
2022-09-30T16:21:27.246Z,99.90
2022-09-30T16:23:54.558Z,99.90
2022-09-30T16:26:24.315Z,99.90
2022-09-30T16:28:51.202Z,99.90
2022-09-30T16:31:20.113Z,99.90
2022-09-30T16:33:46.706Z,99.90
2022-09-30T16:36:14.654Z,99.90
2022-09-30T16:38:42.240Z,99.90
2022-09-30T16:41:10.536Z,99.90
2022-09-30T16:43:38.763Z,99.90
2022-09-30T16:46:05.657Z,99.90
2022-09-30T16:48:32.502Z,99.90
2022-09-30T16:51:03.071Z,99.90
2022-09-30T16:53:29.904Z,99.90
2022-09-30T16:55:56.537Z,99.90
2022-09-30T16:58:23.229Z,99.90
2022-09-30T17:00:49.837Z,99.90
2022-09-30T17:03:16.944Z,99.90
2022-09-30T17:05:44.479Z,99.90
2022-09-30T17:08:14.681Z,99.90
2022-09-30T17:10:46.040Z,99.90
2022-09-30T17:13:15.480Z,99.90
2022-09-30T17:15:42.573Z,99.90
2022-09-30T17:18:09.387Z,99.90
2022-09-30T17:20:36.467Z,99.90
2022-09-30T17:23:07.167Z,99.90
2022-09-30T17:25:34.394Z,99.90
2022-09-30T17:28:01.119Z,99.90
2022-09-30T17:30:27.705Z,99.90
2022-09-30T17:32:54.395Z,99.90
2022-09-30T17:35:22.424Z,99.90
2022-09-30T17:37:49.090Z,99.90
2022-09-30T17:40:34.457Z,99.90
2022-09-30T17:43:13.024Z,99.90
2022-09-30T17:45:40.422Z,99.90
2022-09-30T17:48:08.820Z,99.90
2022-09-30T17:50:38.706Z,99.90
2022-09-30T17:53:05.912Z,99.90
2022-09-30T17:55:33.781Z,99.90
2022-09-30T17:58:02.903Z,99.90
2022-09-30T18:00:29.808Z,99.90
2022-09-30T18:02:56.480Z,99.90
2022-09-30T18:05:25.540Z,99.90
2022-09-30T18:07:52.111Z,99.90
2022-09-30T18:10:18.719Z,99.90
2022-09-30T18:12:47.647Z,99.90
2022-09-30T18:15:14.180Z,99.90
2022-09-30T18:17:40.765Z,99.90
2022-09-30T18:20:07.648Z,99.90
2022-09-30T18:22:34.197Z,99.90
2022-09-30T18:25:19.490Z,99.90
2022-09-30T18:27:46.908Z,99.90
2022-09-30T18:30:13.476Z,99.90
2022-09-30T18:32:40.241Z,99.90
2022-09-30T18:35:07.083Z,1.00
2022-09-30T18:37:33.700Z,1.00
2022-09-30T18:40:00.275Z,1.00
2022-09-30T18:42:27.394Z,1.00
2022-09-30T18:44:55.145Z,1.00
2022-09-30T18:47:21.689Z,1.00
2022-09-30T18:49:48.294Z,1.00
2022-09-30T18:52:15.982Z,1.00
2022-09-30T18:54:42.521Z,1.00
2022-09-30T18:57:09.095Z,1.00
2022-09-30T18:59:35.615Z,1.00
2022-09-30T19:02:03.964Z,1.00
2022-09-30T19:04:30.542Z,1.00
2022-09-30T19:06:57.156Z,1.00
2022-09-30T19:09:26.508Z,1.00
2022-09-30T19:11:53.133Z,1.00
2022-09-30T19:14:19.717Z,1.00
2022-09-30T19:16:46.311Z,1.00
2022-09-30T19:19:12.921Z,1.00
2022-09-30T19:21:39.487Z,1.00
2022-09-30T19:24:06.934Z,1.00
2022-09-30T19:26:33.952Z,1.00
2022-09-30T19:29:00.574Z,1.00
2022-09-30T19:31:27.695Z,1.00
2022-09-30T19:33:56.894Z,1.00
2022-09-30T19:36:23.960Z,1.00
2022-09-30T19:38:52.655Z,1.00
2022-09-30T19:41:20.677Z,1.00
2022-09-30T19:43:50.224Z,1.00
2022-09-30T19:46:16.871Z,1.00
2022-09-30T19:48:45.158Z,1.00
2022-09-30T19:51:12.805Z,1.00
2022-09-30T19:53:41.878Z,1.00
2022-09-30T19:56:16.789Z,1.00
2022-09-30T19:58:44.868Z,1.00
2022-09-30T20:01:11.749Z,1.00
2022-09-30T20:03:38.448Z,1.00
2022-09-30T20:06:05.895Z,1.00
2022-09-30T20:08:32.963Z,1.00
2022-09-30T20:11:03.460Z,1.00
2022-09-30T20:13:30.086Z,1.00
2022-09-30T20:15:58.693Z,1.00
2022-09-30T20:18:25.384Z,1.00
2022-09-30T20:20:52.821Z,1.00
2022-09-30T20:23:22.189Z,1.00
2022-09-30T20:25:49.103Z,1.00
2022-09-30T20:28:15.779Z,1.00
2022-09-30T20:30:48.359Z,1.00
2022-09-30T20:33:15.485Z,1.00
2022-09-30T20:35:42.007Z,1.00
2022-09-30T20:38:10.140Z,1.00
2022-09-30T20:40:36.673Z,29.50
2022-09-30T20:43:04.002Z,54.70
2022-09-30T20:45:30.615Z,73.60
2022-09-30T20:47:57.213Z,99.90
2022-09-30T20:50:36.081Z,99.90
2022-09-30T20:53:03.481Z,99.90
2022-09-30T20:55:30.009Z,78.00
2022-09-30T20:57:56.560Z,52.70
2022-09-30T21:00:23.098Z,54.00
2022-09-30T21:02:49.918Z,52.20
2022-09-30T21:05:16.453Z,56.10
2022-09-30T21:07:42.999Z,44.80
2022-09-30T21:10:09.530Z,94.20
2022-09-30T21:12:36.067Z,95.70
2022-09-30T21:15:02.625Z,97.90
2022-09-30T21:17:31.224Z,99.90
2022-09-30T21:19:57.762Z,99.90
2022-09-30T21:22:24.374Z,99.90
2022-09-30T21:24:50.900Z,99.90
2022-09-30T21:27:17.441Z,99.90
2022-09-30T21:29:43.986Z,99.90
2022-09-30T21:32:10.579Z,99.90
2022-09-30T21:34:37.157Z,91.90
2022-09-30T21:37:03.792Z,52.90
2022-09-30T21:39:30.315Z,54.70
2022-09-30T21:41:58.804Z,38.90
2022-09-30T21:44:25.652Z,26.50
2022-09-30T21:46:52.204Z,19.70
2022-09-30T21:49:19.679Z,9.00
2022-09-30T21:51:46.356Z,3.10
2022-09-30T21:54:13.832Z,1.00
2022-09-30T21:56:40.733Z,6.10
2022-09-30T21:59:07.272Z,12.80
2022-09-30T22:01:34.104Z,25.00
2022-09-30T22:04:00.931Z,15.10
2022-09-30T22:06:28.455Z,22.50
2022-09-30T22:08:55.001Z,37.30
2022-09-30T22:11:23.742Z,65.70
2022-09-30T22:13:55.078Z,56.10
2022-09-30T22:16:23.297Z,67.80
2022-09-30T22:18:53.934Z,82.30
2022-09-30T22:21:20.469Z,92.90
2022-09-30T22:23:47.565Z,99.90
2022-09-30T22:26:17.565Z,99.90
2022-09-30T22:28:44.738Z,99.90
2022-09-30T22:31:19.052Z,99.90
2022-09-30T22:34:04.660Z,99.90
2022-09-30T22:36:49.886Z,99.90
2022-09-30T22:39:16.469Z,99.90
2022-09-30T22:41:43.019Z,99.90
2022-09-30T22:44:09.574Z,99.90
2022-09-30T22:46:36.465Z,99.90
2022-09-30T22:49:03.269Z,99.90
2022-09-30T22:51:30.045Z,99.90
2022-09-30T22:53:56.806Z,99.90
2022-09-30T22:56:23.332Z,99.90
2022-09-30T22:58:49.874Z,99.90
2022-09-30T23:01:16.428Z,99.90
2022-09-30T23:03:43.277Z,99.90
2022-09-30T23:06:09.888Z,99.90
2022-09-30T23:08:41.649Z,99.90
2022-09-30T23:11:11.840Z,99.90
2022-09-30T23:13:38.542Z,99.90
2022-09-30T23:16:05.700Z,99.90
2022-09-30T23:18:34.957Z,99.90
2022-09-30T23:21:02.595Z,1.40
2022-09-30T23:23:29.813Z,99.90
2022-09-30T23:25:59.977Z,1.00
2022-09-30T23:28:26.558Z,1.00
2022-09-30T23:30:53.211Z,1.00
2022-09-30T23:33:19.757Z,1.00
2022-09-30T23:35:46.752Z,1.00
2022-09-30T23:38:13.396Z,1.00
2022-09-30T23:40:46.387Z,1.00
2022-09-30T23:43:13.169Z,1.00
2022-09-30T23:45:39.740Z,1.00
2022-09-30T23:48:06.320Z,1.00
2022-09-30T23:50:32.927Z,1.00
2022-09-30T23:52:59.535Z,1.00
2022-09-30T23:55:27.543Z,1.00
2022-09-30T23:57:54.214Z,1.00
